Time;durP1;ratioP1;P1;durP2;ratioP2;P2;SDS_P1;SDS_P2;PMS_P1;PMS_P2;Temp;Humidity;BMP_temperature;BMP_pressure;BME280_temperature;BME280_humidity;BME280_pressure;Samples;Min_cycle;Max_cycle;Signal;HPM_P1;HPM_P2
2024/03/20 00:01:13;;;;;;;23.13;12.40;;;;;;;11.88;100.00;101626.19;6274699;28;20046;-74
2024/03/20 00:04:14;;;;;;;29.15;10.50;;;;;;;11.92;100.00;101624.28;6271366;28;20060;-74
2024/03/20 00:07:15;;;;;;;28.58;11.85;;;;;;;11.92;100.00;101627.75;6277729;28;20052;-74
2024/03/20 00:10:18;;;;;;;26.13;12.40;;;;;;;11.92;100.00;101624.28;6262227;28;20490;-74
2024/03/20 00:13:20;;;;;;;24.02;11.77;;;;;;;11.92;100.00;101619.00;6254631;28;20042;-74
2024/03/20 00:16:21;;;;;;;27.52;12.52;;;;;;;11.90;100.00;101613.81;6254073;28;20056;-74
2024/03/20 00:19:23;;;;;;;22.40;10.43;;;;;;;11.92;100.00;101624.28;6253852;28;20049;-74
2024/03/20 00:22:24;;;;;;;27.02;12.00;;;;;;;11.92;100.00;101619.00;6254151;28;20380;-74
2024/03/20 00:25:27;;;;;;;22.42;10.50;;;;;;;11.91;100.00;101620.78;6256226;28;20053;-74
2024/03/20 00:28:28;;;;;;;21.10;10.63;;;;;;;11.90;100.00;101615.59;6270392;28;20468;-74
2024/03/20 00:31:29;;;;;;;22.77;11.13;;;;;;;11.89;100.00;101621.75;6278364;28;20052;-74
2024/03/20 00:34:31;;;;;;;26.48;11.10;;;;;;;11.91;100.00;101617.31;6278740;28;20049;-74
2024/03/20 00:37:32;;;;;;;25.95;11.35;;;;;;;11.90;100.00;101615.59;6266614;28;20465;-75
2024/03/20 00:40:35;;;;;;;19.42;10.00;;;;;;;11.88;100.00;101622.69;6269867;28;20053;-74
2024/03/20 00:43:36;;;;;;;24.88;12.05;;;;;;;11.87;100.00;101611.31;6278424;28;20445;-74
2024/03/20 00:46:38;;;;;;;26.83;11.05;;;;;;;11.86;100.00;101608.75;6267092;28;20345;-74
2024/03/20 00:49:39;;;;;;;31.13;11.32;;;;;;;11.84;100.00;101613.22;6277793;28;20110;-74
2024/03/20 00:52:41;;;;;;;24.77;11.32;;;;;;;11.81;100.00;101606.28;6278361;28;20353;-74
2024/03/20 00:55:43;;;;;;;23.20;11.20;;;;;;;11.74;100.00;101602.22;6277723;28;20053;-74
2024/03/20 00:58:45;;;;;;;24.50;11.35;;;;;;;11.69;100.00;101602.41;6273451;28;20374;-74
2024/03/20 01:01:46;;;;;;;28.58;11.35;;;;;;;11.67;100.00;101601.66;6265964;28;20190;-74
2024/03/20 01:04:47;;;;;;;26.50;11.25;;;;;;;11.65;100.00;101603.47;6278038;28;20056;-74
2024/03/20 01:07:49;;;;;;;26.75;12.15;;;;;;;11.65;100.00;101592.09;6277377;28;20048;-74
2024/03/20 01:10:51;;;;;;;22.33;10.57;;;;;;;11.66;100.00;101593.78;6269319;28;20056;-75
2024/03/20 01:13:53;;;;;;;21.70;10.45;;;;;;;11.64;100.00;101591.25;6277865;28;20077;-74
2024/03/20 01:16:54;;;;;;;22.67;11.35;;;;;;;11.61;100.00;101585.25;6277455;28;20045;-74
2024/03/20 01:19:55;;;;;;;23.58;10.68;;;;;;;11.62;100.00;101585.16;6277380;28;20357;-74
2024/03/20 01:22:58;;;;;;;27.48;11.40;;;;;;;11.61;100.00;101588.72;6277628;28;20048;-74
2024/03/20 01:26:01;;;;;;;24.90;10.60;;;;;;;11.62;100.00;101590.44;6277544;28;20430;-74
2024/03/20 01:29:02;;;;;;;23.08;10.25;;;;;;;11.60;100.00;101586.19;6271845;28;20136;-74
2024/03/20 01:32:03;;;;;;;26.67;11.90;;;;;;;11.63;100.00;101588.69;6267692;28;20045;-74
2024/03/20 01:35:06;;;;;;;26.83;12.52;;;;;;;11.62;100.00;101590.44;6277154;28;20056;-74
2024/03/20 01:38:07;;;;;;;25.33;11.40;;;;;;;11.64;100.00;101587.75;6277536;28;20068;-74
2024/03/20 01:41:10;;;;;;;28.58;11.32;;;;;;;11.60;100.00;101587.03;6276727;28;20049;-74
2024/03/20 01:44:12;;;;;;;23.70;10.10;;;;;;;11.62;100.00;101586.94;6277313;28;20049;-74
2024/03/20 01:47:13;;;;;;;24.58;11.18;;;;;;;11.63;100.00;101581.63;6276874;28;20157;-74
2024/03/20 01:50:15;;;;;;;24.75;11.27;;;;;;;11.63;100.00;101583.41;6276581;28;20059;-74
2024/03/20 01:53:17;;;;;;;25.67;10.48;;;;;;;11.63;100.00;101586.91;6277104;28;20045;-74
2024/03/20 01:56:20;;;;;;;26.50;11.65;;;;;;;11.60;100.00;101586.19;6276686;28;20334;-74
2024/03/20 01:59:22;;;;;;;32.50;11.77;;;;;;;11.59;100.00;101587.09;6276378;28;20095;-74
2024/03/20 02:02:23;;;;;;;25.33;11.27;;;;;;;11.58;100.00;101588.00;6276641;28;20045;-74
2024/03/20 02:05:25;;;;;;;27.25;11.70;;;;;;;11.56;100.00;101589.84;6276732;28;20064;-74
2024/03/20 02:08:26;;;;;;;24.60;10.75;;;;;;;11.53;100.00;101595.25;6275900;28;20057;-74
2024/03/20 02:11:29;;;;;;;25.35;10.80;;;;;;;11.48;100.00;101584.91;6276257;28;20049;-74
2024/03/20 02:14:31;;;;;;;25.05;11.25;;;;;;;11.43;100.00;101584.28;6276266;28;20072;-74
2024/03/20 02:17:32;;;;;;;24.95;10.93;;;;;;;11.38;100.00;101581.84;6276329;28;20049;-73
2024/03/20 02:20:34;;;;;;;23.77;10.90;;;;;;;11.34;100.00;101587.31;6275941;28;20057;-72
2024/03/20 02:23:37;;;;;;;35.17;13.60;;;;;;;11.31;100.00;101577.78;6276408;28;20049;-73
2024/03/20 02:26:38;;;;;;;24.05;10.38;;;;;;;11.27;100.00;101572.72;6275895;28;20049;-73
2024/03/20 02:29:39;;;;;;;23.88;11.25;;;;;;;11.23;100.00;101576.41;6275525;28;20044;-73
2024/03/20 02:32:41;;;;;;;25.65;10.15;;;;;;;11.20;100.00;101580.00;6276229;28;20044;-74
2024/03/20 02:35:43;;;;;;;30.08;12.45;;;;;;;11.18;100.00;101581.84;6275666;28;20060;-73
2024/03/20 02:38:45;;;;;;;27.40;10.95;;;;;;;11.14;100.00;101581.13;6276021;28;20464;-73
2024/03/20 02:41:47;;;;;;;24.77;10.68;;;;;;;11.12;100.00;101579.47;6274851;28;20045;-73
2024/03/20 02:44:48;;;;;;;28.63;11.77;;;;;;;11.08;100.00;101576.13;6275531;28;20353;-74
2024/03/20 02:47:50;;;;;;;23.10;10.55;;;;;;;11.06;100.00;101579.72;6275536;28;20052;-73
2024/03/20 02:50:51;;;;;;;25.95;10.82;;;;;;;11.01;100.00;101573.81;6275383;28;20138;-73
2024/03/20 02:53:54;;;;;;;24.00;10.30;;;;;;;10.93;100.00;101579.38;6275705;28;20052;-73
2024/03/20 02:56:55;;;;;;;21.90;10.82;;;;;;;10.89;100.00;101580.41;6275129;28;20052;-73
2024/03/20 02:59:56;;;;;;;22.58;10.88;;;;;;;10.84;100.00;101572.72;6275094;28;20049;-73
2024/03/20 03:02:58;;;;;;;28.65;11.98;;;;;;;10.82;100.00;101560.56;6275297;28;20049;-73
2024/03/20 03:06:00;;;;;;;28.10;10.23;;;;;;;10.80;100.00;101568.50;6275298;28;20056;-74
2024/03/20 03:09:03;;;;;;;23.10;10.02;;;;;;;10.78;100.00;101572.13;6275196;28;20053;-73
2024/03/20 03:12:05;;;;;;;22.88;11.05;;;;;;;10.80;100.00;101570.28;6264146;28;20056;-74
2024/03/20 03:15:07;;;;;;;27.35;11.55;;;;;;;10.77;100.00;101575.69;6250059;28;20179;-73
2024/03/20 03:18:08;;;;;;;30.45;11.95;;;;;;;10.77;100.00;101573.06;6249656;28;20076;-73
2024/03/20 03:21:10;;;;;;;25.30;9.98;;;;;;;10.74;100.00;101571.41;6249814;28;20050;-73
2024/03/20 03:24:13;;;;;;;28.27;11.65;;;;;;;10.69;100.00;101562.84;6249656;28;20461;-73
2024/03/20 03:27:14;;;;;;;23.80;9.82;;;;;;;10.65;100.00;101567.38;6246427;28;20050;-74
2024/03/20 03:30:16;;;;;;;32.53;12.43;;;;;;;10.63;100.00;101578.88;6253695;28;20369;-74
2024/03/20 03:33:17;;;;;;;25.30;11.05;;;;;;;10.59;100.00;101569.41;6250230;28;20068;-73
2024/03/20 03:36:19;;;;;;;22.85;10.57;;;;;;;10.56;100.00;101570.38;6249765;28;20060;-73
2024/03/20 03:39:21;;;;;;;22.27;9.82;;;;;;;10.54;100.00;101568.72;6251854;28;20052;-73
2024/03/20 03:42:23;;;;;;;28.80;10.68;;;;;;;10.49;100.00;101563.66;6259720;28;20046;-72
2024/03/20 03:45:24;;;;;;;25.13;10.45;;;;;;;10.44;100.00;101567.38;6249953;28;20078;-74
2024/03/20 03:48:26;;;;;;;23.77;10.05;;;;;;;10.38;100.00;101571.94;6249655;28;20385;-74
2024/03/20 03:51:28;;;;;;;22.33;10.07;;;;;;;10.30;100.00;101568.75;6249771;28;20053;-73
2024/03/20 03:54:31;;;;;;;26.58;11.02;;;;;;;10.25;100.00;101575.97;6249731;28;20354;-74
2024/03/20 03:57:32;;;;;;;26.33;11.25;;;;;;;10.21;100.00;101568.22;6249735;28;20057;-75
2024/03/20 04:00:33;;;;;;;25.15;11.07;;;;;;;10.14;100.00;101572.88;6249433;28;20056;-74
2024/03/20 04:03:34;;;;;;;23.20;10.30;;;;;;;10.08;100.00;101580.97;6249553;28;20354;-75
2024/03/20 04:06:36;;;;;;;27.35;10.43;;;;;;;10.06;100.00;101577.56;6249542;28;20057;-73
2024/03/20 04:09:39;;;;;;;26.35;10.02;;;;;;;10.10;100.00;101573.91;6249290;28;20049;-73
2024/03/20 04:12:40;;;;;;;22.77;10.50;;;;;;;10.11;100.00;101570.34;6249754;28;20450;-73
2024/03/20 04:15:43;;;;;;;27.70;10.27;;;;;;;10.14;100.00;101586.00;6249436;28;20049;-73
2024/03/20 04:18:45;;;;;;;23.05;11.15;;;;;;;10.15;100.00;101582.47;6249713;28;20045;-73
2024/03/20 04:21:46;;;;;;;21.73;10.57;;;;;;;10.18;100.00;101577.09;6249059;28;20505;-73
2024/03/20 04:24:49;;;;;;;25.98;11.10;;;;;;;10.20;100.00;101577.03;6249366;28;20045;-73
2024/03/20 04:27:50;;;;;;;31.85;11.80;;;;;;;10.20;100.00;101583.13;6249304;28;20437;-73
2024/03/20 04:30:51;;;;;;;30.38;12.25;;;;;;;10.16;100.00;101578.91;6251726;28;20042;-73
2024/03/20 04:33:53;;;;;;;24.88;10.63;;;;;;;10.16;100.00;101577.13;6253882;28;20350;-73
2024/03/20 04:36:54;;;;;;;27.70;12.00;;;;;;;10.14;100.00;101586.84;6251468;28;20384;-73
2024/03/20 04:39:56;;;;;;;22.15;9.10;;;;;;;10.15;100.00;101591.19;6255751;28;20048;-73
2024/03/20 04:42:58;;;;;;;26.50;10.75;;;;;;;10.16;100.00;101584.16;6260293;28;20433;-74
2024/03/20 04:45:59;;;;;;;23.83;10.68;;;;;;;10.16;100.00;101573.66;6255526;28;20045;-73
2024/03/20 04:49:00;;;;;;;24.13;10.65;;;;;;;10.15;100.00;101579.84;6253232;28;20060;-73
2024/03/20 04:52:02;;;;;;;26.65;9.88;;;;;;;10.13;100.00;101581.69;6254136;28;20046;-75
2024/03/20 04:55:05;;;;;;;28.30;11.25;;;;;;;10.06;100.00;101575.78;6258364;28;20052;-73
2024/03/20 04:58:07;;;;;;;21.67;9.25;;;;;;;10.09;100.00;101583.56;6253514;28;20056;-74
2024/03/20 05:01:09;;;;;;;25.50;10.82;;;;;;;10.13;100.00;101593.03;6252842;28;20045;-74
2024/03/20 05:04:10;;;;;;;28.60;10.43;;;;;;;10.15;100.00;101585.09;6252226;28;20404;-74
2024/03/20 05:07:12;;;;;;;22.95;9.68;;;;;;;10.21;100.00;101586.63;6244579;28;20049;-74
2024/03/20 05:10:16;;;;;;;27.75;10.27;;;;;;;10.25;100.00;101596.13;6251039;28;20582;-74
2024/03/20 05:13:17;;;;;;;23.95;11.13;;;;;;;10.26;100.00;101598.69;6252994;28;20057;-74
2024/03/20 05:16:18;;;;;;;36.58;10.63;;;;;;;10.25;100.00;101596.13;6245114;28;20060;-74
2024/03/20 05:19:20;;;;;;;21.45;9.57;;;;;;;10.20;100.00;101603.31;6252365;28;20049;-74
2024/03/20 05:22:21;;;;;;;20.83;8.88;;;;;;;10.14;100.00;101601.78;6237941;28;20477;-74
2024/03/20 05:25:23;;;;;;;22.65;10.15;;;;;;;10.09;100.00;101601.09;6243976;28;20049;-74
2024/03/20 05:28:25;;;;;;;27.45;9.70;;;;;;;10.05;100.00;101596.88;6243699;28;20361;-74
2024/03/20 05:31:28;;;;;;;25.13;10.15;;;;;;;9.99;100.00;101604.94;6243544;28;20353;-74
2024/03/20 05:34:28;;;;;;;21.50;9.70;;;;;;;9.91;100.00;101603.47;6243865;28;20042;-74
2024/03/20 05:37:30;;;;;;;19.35;10.00;;;;;;;9.88;100.00;101600.09;6244520;28;20075;-74
2024/03/20 05:40:32;;;;;;;18.92;9.75;;;;;;;9.83;100.00;101602.03;6243288;28;20433;-73
2024/03/20 05:43:33;;;;;;;21.02;9.07;;;;;;;9.79;100.00;101601.28;6242594;28;20077;-74
2024/03/20 05:46:34;;;;;;;22.98;9.40;;;;;;;9.76;100.00;101597.91;6243327;28;20046;-75
2024/03/20 05:49:35;;;;;;;23.67;9.52;;;;;;;9.77;100.00;101600.50;6275711;22;20048;-73
2024/03/20 05:52:36;;;;;;;21.20;10.15;;;;;;;9.79;100.00;101601.28;6266451;28;20060;-73
2024/03/20 05:55:39;;;;;;;23.83;10.75;;;;;;;9.81;100.00;101602.13;6261794;28;20048;-73
2024/03/20 05:58:42;;;;;;;22.95;9.88;;;;;;;9.84;100.00;101606.38;6262966;28;20445;-73
2024/03/20 06:01:43;;;;;;;20.08;9.43;;;;;;;9.89;100.00;101607.06;6262385;28;20052;-73
2024/03/20 06:04:44;;;;;;;21.08;8.65;;;;;;;9.95;100.00;101605.97;6261986;28;20045;-73
2024/03/20 06:07:45;;;;;;;17.60;8.80;;;;;;;10.00;100.00;101610.16;6255797;28;20045;-73
2024/03/20 06:10:47;;;;;;;19.42;9.35;;;;;;;10.03;100.00;101617.06;6250973;28;20049;-73
2024/03/20 06:13:48;;;;;;;23.63;9.77;;;;;;;10.07;100.00;101616.88;6251594;28;20037;-73
2024/03/20 06:16:49;;;;;;;22.38;9.90;;;;;;;10.13;100.00;101611.41;6251103;28;20049;-73
2024/03/20 06:19:50;;;;;;;19.92;10.10;;;;;;;10.20;100.00;101614.66;6250619;28;20049;-73
2024/03/20 06:22:52;;;;;;;22.63;9.30;;;;;;;10.30;100.00;101620.44;6251040;28;20046;-73
2024/03/20 06:25:54;;;;;;;20.77;9.05;;;;;;;10.37;100.00;101619.31;6251022;28;20050;-73
2024/03/20 06:28:55;;;;;;;21.42;10.05;;;;;;;10.48;100.00;101621.50;6250945;28;20124;-73
2024/03/20 06:31:56;;;;;;;20.85;8.95;;;;;;;10.57;100.00;101622.00;6250727;28;20057;-73
2024/03/20 06:34:58;;;;;;;21.52;9.65;;;;;;;10.63;100.00;101629.66;6250651;28;20098;-73
2024/03/20 06:37:59;;;;;;;32.97;10.52;;;;;;;10.63;100.00;101626.19;6244711;28;20060;-73
2024/03/20 06:41:03;;;;;;;20.92;9.77;;;;;;;10.74;100.00;101625.75;6248252;28;20045;-73
2024/03/20 06:44:07;;;;;;;21.48;9.25;;;;;;;10.80;100.00;101628.13;6250647;28;20045;-73
2024/03/20 06:47:08;;;;;;;22.50;9.10;;;;;;;10.89;100.00;101625.13;6250350;28;20053;-73
2024/03/20 06:50:09;;;;;;;15.80;7.93;;;;;;;10.95;100.00;101621.41;6249894;28;20077;-73
2024/03/20 06:53:11;;;;;;;18.83;8.65;;;;;;;10.97;100.00;101624.81;6243293;28;20100;-72
2024/03/20 06:56:13;;;;;;;25.98;9.50;;;;;;;11.03;100.00;101624.56;6249686;28;20053;-73
2024/03/20 06:59:16;;;;;;;24.10;8.43;;;;;;;11.08;100.00;101625.22;6250709;28;20057;-73
2024/03/20 07:02:17;;;;;;;18.52;8.88;;;;;;;11.14;100.00;101628.47;6250176;28;20079;-73
2024/03/20 07:05:18;;;;;;;26.27;8.90;;;;;;;11.21;100.00;101634.31;6250484;28;20041;-73
2024/03/20 07:08:19;;;;;;;17.95;8.52;;;;;;;11.26;100.00;101632.34;6250884;28;20072;-74
2024/03/20 07:11:21;;;;;;;16.67;7.97;;;;;;;11.34;100.00;101639.94;6250975;28;20056;-73
2024/03/20 07:14:22;;;;;;;20.73;8.23;;;;;;;11.39;100.00;101637.97;6251139;28;20128;-74
2024/03/20 07:17:22;;;;;;;22.33;8.75;;;;;;;11.41;100.00;101634.34;6249880;28;20049;-73
2024/03/20 07:20:25;;;;;;;19.48;9.32;;;;;;;11.49;100.00;101641.94;6249324;28;20053;-73
2024/03/20 07:23:26;;;;;;;17.45;8.73;;;;;;;11.59;100.00;101640.59;6249931;28;20132;-74
2024/03/20 07:26:29;;;;;;;21.52;9.05;;;;;;;11.63;100.00;101643.97;6249917;28;20118;-74
2024/03/20 07:29:30;;;;;;;15.15;8.02;;;;;;;11.67;100.00;101640.25;6249914;28;20053;-74
2024/03/20 07:32:31;;;;;;;17.67;7.85;;;;;;;11.75;100.00;101640.78;6250190;28;20053;-74
2024/03/20 07:35:44;;;;;;;17.00;8.10;;;;;;;11.83;100.00;101649.25;6249805;28;20349;-74
2024/03/20 07:38:45;;;;;;;22.13;10.18;;;;;;;11.82;100.00;101651.91;6250007;28;20041;-74
2024/03/20 07:41:47;;;;;;;20.45;9.32;;;;;;;11.75;100.00;101658.38;6245475;28;20057;-72
2024/03/20 07:44:49;;;;;;;18.90;9.65;;;;;;;11.77;100.00;101673.19;6246854;28;20048;-74
2024/03/20 07:47:50;;;;;;;23.63;9.18;;;;;;;11.91;100.00;101676.09;6251019;28;20045;-74
2024/03/20 07:50:53;;;;;;;22.63;8.93;;;;;;;12.04;100.00;101681.69;6250495;28;20049;-73
2024/03/20 07:53:55;;;;;;;20.30;9.55;;;;;;;12.24;100.00;101688.69;6250504;28;20092;-73
2024/03/20 07:56:57;;;;;;;23.83;10.38;;;;;;;12.17;100.00;101681.97;6248991;28;20061;-73
2024/03/20 07:59:58;;;;;;;21.70;9.50;;;;;;;11.96;100.00;101678.53;6249416;28;20056;-74
2024/03/20 08:02:59;;;;;;;21.65;9.65;;;;;;;12.00;100.00;101672.22;6249648;28;20144;-74
2024/03/20 08:06:00;;;;;;;20.75;9.30;;;;;;;12.11;100.00;101667.31;6251262;28;20049;-73
2024/03/20 08:09:01;;;;;;;27.05;9.48;;;;;;;12.17;100.00;101671.44;6254134;28;20053;-73
2024/03/20 08:12:05;;;;;;;21.30;8.38;;;;;;;12.29;100.00;101672.66;6253676;28;20377;-73
2024/03/20 08:15:07;;;;;;;17.75;8.48;;;;;;;12.37;100.00;101667.91;6246394;28;20041;-76
2024/03/20 08:18:10;;;;;;;21.52;8.18;;;;;;;12.50;100.00;101673.47;6249177;28;20060;-74
2024/03/20 08:21:13;;;;;;;16.35;7.95;;;;;;;12.60;100.00;101674.75;6252982;28;20053;-75
2024/03/20 08:24:14;;;;;;;20.52;9.00;;;;;;;12.79;100.00;101672.09;6249149;28;20508;-75
2024/03/20 08:27:17;;;;;;;17.20;8.00;;;;;;;12.87;100.00;101664.66;6253830;28;20060;-75
2024/03/20 08:30:18;;;;;;;15.02;7.88;;;;;;;13.02;100.00;101661.28;6249798;28;20046;-74
2024/03/20 08:33:22;;;;;;;19.92;8.43;;;;;;;13.05;100.00;101666.41;6237640;28;20053;-73
2024/03/20 08:36:22;;;;;;;18.35;7.75;;;;;;;13.10;100.00;101660.91;6253475;28;20071;-73
2024/03/20 08:39:23;;;;;;;15.95;7.68;;;;;;;13.21;100.00;101662.06;6253270;28;20049;-74
2024/03/20 08:42:25;;;;;;;18.08;7.15;;;;;;;13.25;100.00;101659.31;6253381;28;20053;-74
2024/03/20 08:45:27;;;;;;;19.45;8.05;;;;;;;13.34;100.00;101661.50;6253273;28;20123;-74
2024/03/20 08:48:29;;;;;;;18.08;7.60;;;;;;;13.40;100.00;101661.22;6246458;28;20049;-73
2024/03/20 08:51:29;;;;;;;13.07;6.60;;;;;;;13.41;100.00;101661.13;6253006;28;20056;-73
2024/03/20 08:54:31;;;;;;;12.68;6.53;;;;;;;13.52;100.00;101663.22;6253403;28;20041;-74
2024/03/20 08:57:33;;;;;;;16.08;6.90;;;;;;;13.57;100.00;101663.81;6252375;28;20358;-74
2024/03/20 09:00:35;;;;;;;17.15;7.07;;;;;;;13.63;100.00;101674.09;6252408;28;20050;-73
2024/03/20 09:03:35;;;;;;;16.38;7.30;;;;;;;13.80;100.00;101672.34;6249171;28;20049;-74
2024/03/20 09:06:37;;;;;;;18.83;7.10;;;;;;;13.91;100.00;101678.81;6249830;28;20411;-74
2024/03/20 09:09:38;;;;;;;16.40;7.65;;;;;;;13.90;100.00;101674.47;6245051;28;20362;-74
2024/03/20 09:12:40;;;;;;;15.52;7.05;;;;;;;13.92;100.00;101669.06;6251846;28;21664;-75
2024/03/20 09:15:41;;;;;;;19.45;8.32;;;;;;;14.04;100.00;101675.53;6252190;28;20354;-74
2024/03/20 09:18:42;;;;;;;14.18;7.32;;;;;;;14.00;100.00;101671.31;6252552;28;20318;-74
2024/03/20 09:21:44;;;;;;;15.65;7.75;;;;;;;14.03;100.00;101679.06;6252209;28;20041;-76
2024/03/20 09:24:45;;;;;;;19.13;8.30;;;;;;;13.87;100.00;101686.97;6253694;28;20045;-76
2024/03/20 09:27:48;;;;;;;17.27;8.02;;;;;;;13.92;100.00;101687.59;6252626;28;20064;-75
2024/03/20 09:30:49;;;;;;;21.23;7.30;;;;;;;14.06;100.00;101682.41;6252039;28;20068;-76
2024/03/20 09:33:50;;;;;;;16.10;7.45;;;;;;;14.17;100.00;101681.84;6252513;28;20045;-76
2024/03/20 09:36:52;;;;;;;19.67;8.13;;;;;;;14.14;100.00;101676.72;6234600;28;20090;-78
2024/03/20 09:39:54;;;;;;;17.58;7.47;;;;;;;14.17;100.00;101676.53;6251998;28;20050;-77
2024/03/20 09:42:57;;;;;;;17.90;7.30;;;;;;;14.35;99.00;101680.00;6251973;28;20099;-77
2024/03/20 09:45:58;;;;;;;15.95;8.02;;;;;;;14.47;99.25;101676.69;6252042;28;20057;-77
2024/03/20 09:48:59;;;;;;;15.80;7.10;;;;;;;14.43;100.00;101676.00;6251926;28;20045;-76
2024/03/20 09:51:59;;;;;;;17.20;7.13;;;;;;;14.32;100.00;101678.38;6251814;28;20557;-77
2024/03/20 09:55:02;;;;;;;15.38;7.88;;;;;;;14.36;100.00;101671.16;6251830;28;20041;-77
2024/03/20 09:58:04;;;;;;;16.27;8.40;;;;;;;14.54;99.04;101672.81;6251702;28;20462;-76
2024/03/20 10:01:09;;;;;;;19.60;8.10;;;;;;;14.54;99.31;101674.63;6251519;28;20156;-77
2024/03/20 10:04:11;;;;;;;16.42;7.65;;;;;;;14.65;98.03;101667.78;6245782;28;20045;-75
2024/03/20 10:07:14;;;;;;;16.75;6.47;;;;;;;14.76;97.20;101672.47;6245133;28;20060;-76
2024/03/20 10:10:15;;;;;;;14.00;6.95;;;;;;;14.76;99.38;101667.19;6251105;28;20057;-77
2024/03/20 10:13:18;;;;;;;17.20;7.40;;;;;;;14.81;98.83;101669.56;6251652;28;20054;-78
2024/03/20 10:16:19;;;;;;;14.82;6.93;;;;;;;14.91;97.88;101678.69;6251157;28;20053;-77
2024/03/20 10:19:25;;;;;;;14.18;6.93;;;;;;;14.97;95.25;101670.41;6251048;28;20045;-77
2024/03/20 10:22:26;;;;;;;14.73;7.10;;;;;;;14.94;95.80;101659.97;6248728;28;20077;-76
2024/03/20 10:25:26;;;;;;;14.52;7.22;;;;;;;15.02;94.76;101657.75;6251052;28;20045;-78
2024/03/20 10:28:31;;;;;;;19.55;7.57;;;;;;;15.08;95.77;101657.41;6250433;28;20053;-79
2024/03/20 10:31:31;;;;;;;12.52;6.50;;;;;;;15.13;95.90;101651.84;6250623;28;20327;-77
2024/03/20 10:34:34;;;;;;;17.67;8.07;;;;;;;15.13;93.92;101652.72;6251189;28;20121;-78
2024/03/20 10:37:34;;;;;;;13.73;7.22;;;;;;;15.13;91.87;101654.50;6250798;28;20049;-77
2024/03/20 10:40:37;;;;;;;14.52;7.40;;;;;;;15.24;93.34;101657.38;6250320;28;20061;-78
2024/03/20 10:43:39;;;;;;;15.43;7.05;;;;;;;15.33;92.49;101655.97;6247488;28;20438;-78
2024/03/20 10:46:44;;;;;;;11.43;6.60;;;;;;;15.32;91.97;101652.47;6243906;28;20362;-78
2024/03/20 10:49:44;;;;;;;16.75;6.57;;;;;;;15.54;89.45;101662.66;6250074;28;20187;-77
2024/03/20 10:52:48;;;;;;;14.32;6.50;;;;;;;15.57;90.94;101661.63;6250794;28;20442;-77
2024/03/20 10:55:51;;;;;;;16.58;7.30;;;;;;;15.66;88.63;101656.66;6250135;28;20345;-77
2024/03/20 10:59:00;;;;;;;13.10;6.68;;;;;;;15.83;89.91;101657.44;6250490;28;20045;-75
2024/03/20 11:02:04;;;;;;;20.45;7.05;;;;;;;16.08;85.67;101668.25;6249958;28;20077;-78
2024/03/20 11:05:38;;;;;;;10.63;6.38;;;;;;;16.00;87.32;101656.41;6250348;28;20081;-79
2024/03/20 11:08:53;;;;;;;15.40;7.32;;;;;;;16.05;85.65;101662.28;6242556;28;20053;-79
2024/03/20 11:11:56;;;;;;;15.02;7.85;;;;;;;16.15;85.65;101651.00;6250502;28;20049;-78
2024/03/20 11:15:00;;;;;;;16.85;7.82;;;;;;;16.39;82.30;101648.59;6250595;28;20462;-77
2024/03/20 11:18:05;;;;;;;19.27;7.78;;;;;;;16.39;83.32;101656.56;6250921;28;20077;-77
2024/03/20 11:21:06;;;;;;;17.02;8.88;;;;;;;16.46;83.54;101657.88;6249617;28;20369;-79
2024/03/20 11:24:07;;;;;;;14.23;7.30;;;;;;;16.56;84.79;101649.34;6250314;28;20049;-79
2024/03/20 11:27:09;;;;;;;16.17;7.70;;;;;;;16.59;85.64;101650.00;6249769;28;20056;-77
2024/03/20 11:30:12;;;;;;;18.08;8.45;;;;;;;16.67;84.38;101646.88;6249884;28;20052;-78
2024/03/20 11:33:13;;;;;;;17.40;8.32;;;;;;;16.88;81.41;101647.28;6250040;28;20446;-76
2024/03/20 11:36:17;;;;;;;15.80;8.05;;;;;;;16.74;84.57;101649.03;6250122;28;20053;-78
2024/03/20 11:39:19;;;;;;;18.42;9.05;;;;;;;16.65;85.53;101644.28;6249714;28;20049;-79
2024/03/20 11:42:19;;;;;;;15.40;8.02;;;;;;;16.86;83.55;101639.44;6251793;28;20045;-78
2024/03/20 11:45:22;;;;;;;16.63;8.13;;;;;;;16.84;83.56;101641.31;6255068;28;20042;-78
2024/03/20 11:48:24;;;;;;;13.40;7.53;;;;;;;16.91;83.46;101642.63;6246483;28;20468;-78
2024/03/20 11:51:26;;;;;;;19.67;8.68;;;;;;;16.98;84.40;101632.44;6254680;28;20081;-77
2024/03/20 11:54:27;;;;;;;17.48;7.55;;;;;;;16.99;83.39;101636.81;6254851;28;20426;-79
2024/03/20 11:57:28;;;;;;;14.45;7.70;;;;;;;17.13;82.09;101634.09;6254546;28;20056;-79
2024/03/20 12:00:32;;;;;;;17.60;7.32;;;;;;;17.23;79.25;101631.69;6248632;28;20049;-79
2024/03/20 12:03:35;;;;;;;18.50;8.23;;;;;;;17.31;80.22;101633.81;6255045;28;20041;-78
2024/03/20 12:06:37;;;;;;;15.40;7.22;;;;;;;17.41;83.00;101633.09;6254628;28;20164;-78
2024/03/20 12:09:37;;;;;;;14.40;7.47;;;;;;;17.50;82.03;101623.66;6254074;28;20042;-79
2024/03/20 12:12:39;;;;;;;15.57;7.72;;;;;;;17.57;79.36;101627.56;6254331;28;20053;-78
2024/03/20 12:15:42;;;;;;;14.93;7.45;;;;;;;17.64;80.20;101622.69;6254557;28;20357;-78
2024/03/20 12:18:43;;;;;;;20.45;9.05;;;;;;;17.75;82.67;101628.13;6254385;28;20120;-78
2024/03/20 12:21:45;;;;;;;15.80;7.57;;;;;;;17.83;80.17;101617.81;6249341;28;20053;-78
2024/03/20 12:24:46;;;;;;;17.75;8.02;;;;;;;18.16;80.96;101613.72;6253881;28;20069;-78
2024/03/20 12:27:47;;;;;;;15.40;7.82;;;;;;;18.29;76.94;101611.91;6253829;28;20071;-78
2024/03/20 12:30:50;;;;;;;13.00;7.55;;;;;;;18.42;77.28;101618.03;6253782;28;20069;-80
2024/03/20 12:33:53;;;;;;;13.90;7.03;;;;;;;18.49;76.06;101610.47;6253952;28;20041;-78
2024/03/20 12:36:54;;;;;;;12.70;6.75;;;;;;;18.67;74.07;101608.28;6253631;28;20056;-79
2024/03/20 12:39:55;;;;;;;15.00;8.15;;;;;;;18.50;73.01;101607.69;6253091;28;20077;-78
2024/03/20 12:42:57;;;;;;;18.38;8.02;;;;;;;18.67;73.80;101603.78;6253758;28;20048;-78
2024/03/20 12:45:58;;;;;;;18.00;9.20;;;;;;;18.51;73.55;101609.38;6253302;28;20447;-80
2024/03/20 12:49:00;;;;;;;13.88;7.82;;;;;;;18.56;72.13;101603.72;6253308;28;20055;-79
2024/03/20 12:52:00;;;;;;;18.75;7.55;;;;;;;18.76;72.78;101610.28;6252634;28;20052;-79
2024/03/20 12:55:03;;;;;;;13.00;7.68;;;;;;;18.60;75.31;101607.84;6252812;28;20434;-79
2024/03/20 12:58:04;;;;;;;15.20;7.95;;;;;;;18.89;70.84;101597.72;6253187;28;20060;-79
2024/03/20 13:01:10;;;;;;;13.48;7.93;;;;;;;18.80;70.11;101600.22;6252578;28;20095;-79
2024/03/20 13:04:11;;;;;;;16.73;7.38;;;;;;;18.84;70.97;101593.72;6246883;28;20048;-77
2024/03/20 13:07:15;;;;;;;14.77;6.45;;;;;;;18.85;70.24;101598.06;6240383;28;20076;-76
2024/03/20 13:10:16;;;;;;;17.00;7.95;;;;;;;18.83;70.71;101590.22;6246093;28;20056;-76
2024/03/20 13:13:20;;;;;;;15.57;6.95;;;;;;;18.71;72.77;101588.44;6243716;28;20049;-76
2024/03/20 13:16:22;;;;;;;18.42;7.20;;;;;;;18.78;70.33;101583.53;6251521;28;20430;-77
2024/03/20 13:19:26;;;;;;;16.13;6.65;;;;;;;18.79;70.90;101583.41;6252518;28;20441;-77
2024/03/20 13:22:26;;;;;;;13.60;6.65;;;;;;;18.79;71.19;101579.91;6245044;28;20056;-73
2024/03/20 13:25:32;;;;;;;16.17;7.13;;;;;;;18.57;71.25;101586.78;6252326;28;20081;-77
2024/03/20 13:28:33;;;;;;;13.20;6.90;;;;;;;18.66;72.50;101580.78;6252663;28;20052;-77
2024/03/20 13:31:36;;;;;;;12.70;6.90;;;;;;;18.64;72.72;101574.72;6252121;28;20047;-77
2024/03/20 13:34:37;;;;;;;10.95;6.75;;;;;;;18.51;72.07;101574.78;6252469;28;20458;-77
2024/03/20 13:37:44;;;;;;;11.48;6.18;;;;;;;18.89;72.33;101578.25;6252390;28;20060;-77
2024/03/20 13:40:51;;;;;;;15.43;6.30;;;;;;;18.95;69.49;101573.31;6252088;28;20142;-77
2024/03/20 13:44:00;;;;;;;14.88;6.18;;;;;;;18.56;73.73;101569.09;6252130;28;20478;-78
2024/03/20 13:47:03;;;;;;;12.82;6.35;;;;;;;18.39;73.57;101575.66;6252292;28;20096;-77